Time;durP1;ratioP1;P1;durP2;ratioP2;P2;SDS_P1;SDS_P2;PMS_P1;PMS_P2;Temp;Humidity;BMP_temperature;BMP_pressure;BME280_temperature;BME280_humidity;BME280_pressure;Samples;Min_cycle;Max_cycle;Signal;HPM_P1;HPM_P2
2021/09/10 00:00:05;;;;;;;8.05;6.35;;;;;;;22.21;47.85;94746.63;5014538;28;96813;-61
2021/09/10 00:02:31;;;;;;;7.18;5.93;;;;;;;22.28;47.98;94747.75;5014228;28;96985;-61
2021/09/10 00:04:56;;;;;;;5.97;5.35;;;;;;;22.36;47.54;94743.72;5016877;28;99018;-61
2021/09/10 00:07:22;;;;;;;8.27;5.43;;;;;;;22.42;47.87;94744.84;5016945;28;107889;-62
2021/09/10 00:09:47;;;;;;;14.63;6.38;;;;;;;22.49;48.18;94747.56;5017792;28;96719;-61
2021/09/10 00:12:12;;;;;;;11.30;5.35;;;;;;;22.53;48.24;94746.75;5017928;28;96933;-62
2021/09/10 00:14:38;;;;;;;12.55;5.20;;;;;;;22.54;47.95;94746.31;5017080;28;99329;-61
2021/09/10 00:17:03;;;;;;;10.85;4.88;;;;;;;22.61;48.09;94748.22;5016748;28;99413;-63
2021/09/10 00:19:29;;;;;;;10.23;4.65;;;;;;;22.68;48.44;94748.13;5017080;28;96845;-60
2021/09/10 00:21:54;;;;;;;9.93;4.45;;;;;;;22.74;48.02;94746.47;5017699;28;96908;-58
2021/09/10 00:24:20;;;;;;;11.50;4.22;;;;;;;22.73;48.27;94722.91;5017159;28;98949;-61
2021/09/10 00:26:45;;;;;;;6.15;3.90;;;;;;;22.79;48.15;94724.00;5016889;28;102415;-58
2021/09/10 00:29:10;;;;;;;9.05;3.67;;;;;;;22.83;47.85;94723.19;5017502;28;96692;-60
2021/09/10 00:31:36;;;;;;;5.55;4.97;;;;;;;22.86;47.75;94725.91;5017040;28;97084;-59
2021/09/10 00:34:01;;;;;;;7.97;6.05;;;;;;;22.86;47.57;94720.41;5016852;28;105344;-60
2021/09/10 00:36:27;;;;;;;11.93;8.57;;;;;;;22.89;47.29;94725.09;5017206;28;104390;-62
2021/09/10 00:38:52;;;;;;;19.13;16.80;;;;;;;22.93;47.33;94747.06;5017396;28;96633;-59
2021/09/10 00:41:17;;;;;;;26.85;22.17;;;;;;;22.97;47.24;94741.50;5016763;28;96918;-60
2021/09/10 00:43:43;;;;;;;23.48;20.98;;;;;;;23.01;46.91;94745.78;5016341;28;100094;-62
2021/09/10 00:46:08;;;;;;;20.45;18.27;;;;;;;23.04;46.55;94747.72;4998482;28;99098;-60
2021/09/10 00:48:34;;;;;;;18.65;15.07;;;;;;;23.07;46.70;94741.38;5015822;28;96783;-58
2021/09/10 00:50:59;;;;;;;17.20;13.38;;;;;;;23.10;46.46;94732.28;5015847;28;97138;-59
2021/09/10 00:53:26;;;;;;;17.15;12.27;;;;;;;23.13;46.52;94732.66;5015133;28;99616;-61
2021/09/10 00:55:52;;;;;;;14.30;11.93;;;;;;;23.15;46.44;94714.50;5016394;28;99147;-59
2021/09/10 00:58:17;;;;;;;16.42;13.02;;;;;;;23.18;47.67;94718.41;5016638;28;96800;-61
2021/09/10 01:00:42;;;;;;;17.50;10.15;;;;;;;23.20;47.98;94721.53;5016628;28;96880;-62
2021/09/10 01:03:08;;;;;;;18.55;10.85;;;;;;;23.21;48.31;94712.06;5016243;28;99573;-62
2021/09/10 01:05:34;;;;;;;28.85;21.05;;;;;;;23.25;48.49;94726.63;5015054;28;99482;-64
2021/09/10 01:07:59;;;;;;;31.20;25.55;;;;;;;23.26;49.01;94741.94;5016739;28;96715;-57
2021/09/10 01:10:25;;;;;;;31.65;28.27;;;;;;;23.28;49.74;94731.28;5015642;28;96927;-58
2021/09/10 01:12:50;;;;;;;33.22;29.67;;;;;;;23.30;49.25;94737.16;5015854;28;105779;-58
2021/09/10 01:15:16;;;;;;;30.85;27.55;;;;;;;23.29;49.14;94732.84;5016111;28;99059;-58
2021/09/10 01:17:41;;;;;;;28.08;23.60;;;;;;;23.28;49.17;94723.00;5016009;28;97021;-57
2021/09/10 01:20:07;;;;;;;24.23;19.20;;;;;;;23.28;48.95;94731.28;5016894;28;96885;-61
2021/09/10 01:22:33;;;;;;;21.88;19.52;;;;;;;23.30;48.73;94730.88;5014782;28;101492;-59
2021/09/10 01:25:11;;;;;;;21.48;16.42;;;;;;;23.29;48.85;94730.06;5015991;28;103756;-56
2021/09/10 01:27:41;;;;;;;17.80;14.20;;;;;;;23.26;48.48;94728.16;5016434;28;96711;-60
2021/09/10 01:30:07;;;;;;;16.73;13.63;;;;;;;23.29;48.59;94727.31;5016231;28;96790;-60
2021/09/10 01:32:33;;;;;;;13.60;12.13;;;;;;;23.27;48.72;94726.94;5013505;28;99662;-57
2021/09/10 01:34:58;;;;;;;13.55;12.05;;;;;;;23.28;48.79;94723.00;5013800;28;99944;-58
2021/09/10 01:37:24;;;;;;;13.10;11.57;;;;;;;23.28;48.47;94713.97;5013885;28;96710;-58
2021/09/10 01:39:49;;;;;;;12.93;11.50;;;;;;;23.28;48.61;94717.50;5013951;28;96906;-59
2021/09/10 01:42:14;;;;;;;10.82;9.73;;;;;;;23.28;48.53;94722.25;5013550;28;99374;-58
2021/09/10 01:44:40;;;;;;;11.88;9.93;;;;;;;23.26;48.30;94717.13;5013693;28;99484;-58
2021/09/10 01:47:05;;;;;;;11.15;9.95;;;;;;;23.24;48.78;94722.31;5015686;28;96730;-59
2021/09/10 01:49:31;;;;;;;10.60;9.20;;;;;;;23.22;48.71;94724.66;5016844;28;96915;-54
2021/09/10 01:51:56;;;;;;;10.20;8.90;;;;;;;23.22;48.79;94727.41;5015827;28;101509;-56
2021/09/10 01:54:21;;;;;;;9.23;8.10;;;;;;;23.18;49.03;94715.66;5015771;28;104859;-58
2021/09/10 01:56:47;;;;;;;8.82;7.57;;;;;;;23.18;48.90;94729.44;5014681;28;96712;-57
2021/09/10 01:59:12;;;;;;;9.30;7.85;;;;;;;23.18;49.36;94723.94;5016487;28;96800;-57
2021/09/10 02:01:38;;;;;;;8.15;7.35;;;;;;;23.17;49.32;94720.38;5015992;28;99517;-59
2021/09/10 02:04:03;;;;;;;7.68;6.97;;;;;;;23.18;49.15;94712.91;5015985;28;99335;-57
2021/09/10 02:06:29;;;;;;;7.47;6.78;;;;;;;23.19;49.30;94719.97;5016230;28;96731;-58
2021/09/10 02:08:54;;;;;;;7.65;6.65;;;;;;;23.18;49.03;94713.66;5016248;28;96971;-57
2021/09/10 02:11:19;;;;;;;7.60;6.90;;;;;;;23.18;49.02;94716.44;5015770;28;97447;-59
2021/09/10 02:13:45;;;;;;;7.85;6.65;;;;;;;23.17;49.14;94722.38;5015960;28;99364;-58
2021/09/10 02:16:11;;;;;;;7.93;6.00;;;;;;;23.18;48.88;94718.41;5015789;28;96801;-60
2021/09/10 02:18:37;;;;;;;5.88;5.28;;;;;;;23.17;48.58;94716.84;5016240;28;96761;-57
2021/09/10 02:21:03;;;;;;;5.20;4.72;;;;;;;23.17;48.86;94719.63;5015414;28;99592;-58
2021/09/10 02:23:28;;;;;;;5.45;4.93;;;;;;;23.16;48.67;94716.06;5015554;28;99477;-57
2021/09/10 02:25:54;;;;;;;5.70;5.20;;;;;;;23.18;48.81;94723.94;5015256;28;96671;-52
2021/09/10 02:28:19;;;;;;;4.82;4.43;;;;;;;23.17;48.66;94720.38;5015644;28;96943;-58
2021/09/10 02:30:44;;;;;;;5.68;4.72;;;;;;;23.17;48.94;94716.84;5015299;28;99514;-61
2021/09/10 02:33:10;;;;;;;4.57;4.18;;;;;;;23.15;48.70;94716.50;5015353;28;99647;-58
2021/09/10 02:35:35;;;;;;;4.30;3.90;;;;;;;23.15;48.66;94722.00;5015909;28;96595;-58
2021/09/10 02:38:01;;;;;;;4.57;4.22;;;;;;;23.15;48.33;94725.53;5015786;28;97023;-56
2021/09/10 02:40:26;;;;;;;3.80;3.50;;;;;;;23.13;48.99;94722.41;5014945;28;99604;-57
2021/09/10 02:42:52;;;;;;;4.30;3.90;;;;;;;23.15;48.82;94731.03;5015468;28;97675;-57
2021/09/10 02:45:17;;;;;;;3.80;3.50;;;;;;;23.14;49.02;94728.72;5015228;28;96722;-60
2021/09/10 02:47:43;;;;;;;4.20;3.80;;;;;;;23.13;48.92;94724.38;5015623;28;96911;-58
2021/09/10 02:50:08;;;;;;;3.47;3.20;;;;;;;23.13;49.01;94721.63;5015193;28;99523;-59
2021/09/10 02:52:35;;;;;;;3.40;3.10;;;;;;;23.14;48.83;94723.19;5015232;28;99234;-54
2021/09/10 02:55:00;;;;;;;3.03;2.78;;;;;;;23.12;48.92;94720.06;5015542;28;96665;-60
2021/09/10 02:57:26;;;;;;;3.53;3.22;;;;;;;23.12;48.93;94725.59;5015201;28;96943;-58
2021/09/10 02:59:51;;;;;;;3.25;2.95;;;;;;;23.13;48.60;94732.66;5015175;28;99587;-58
2021/09/10 03:02:17;;;;;;;3.10;2.90;;;;;;;23.12;48.67;94722.81;5015308;28;100246;-57
2021/09/10 03:04:45;;;;;;;3.42;2.60;;;;;;;23.10;48.78;94724.03;5015446;28;96662;-57
2021/09/10 03:07:11;;;;;;;2.70;2.50;;;;;;;23.10;48.63;94729.53;5015392;28;96981;-58
2021/09/10 03:09:36;;;;;;;2.65;2.50;;;;;;;23.09;48.45;94727.19;5014476;28;99832;-59
2021/09/10 03:12:02;;;;;;;2.50;2.30;;;;;;;23.10;48.60;94728.72;5014796;28;99498;-54
2021/09/10 03:14:30;;;;;;;2.50;2.30;;;;;;;23.09;48.27;94727.97;5015203;28;96653;-60
2021/09/10 03:16:56;;;;;;;2.20;2.05;;;;;;;23.08;48.46;94726.41;5014988;28;96894;-54
2021/09/10 03:19:21;;;;;;;2.60;2.40;;;;;;;23.10;48.20;94718.50;5014817;28;99751;-60
2021/09/10 03:21:47;;;;;;;1.95;1.85;;;;;;;23.12;48.34;94725.59;5014695;28;99374;-58
2021/09/10 03:24:12;;;;;;;1.83;1.73;;;;;;;23.11;48.44;94719.28;5015056;28;96597;-58
2021/09/10 03:26:39;;;;;;;1.73;1.63;;;;;;;23.09;48.26;94722.47;5015430;28;96962;-58
2021/09/10 03:29:05;;;;;;;2.33;2.13;;;;;;;23.10;48.15;94728.72;5013407;28;99422;-58
2021/09/10 03:31:30;;;;;;;1.90;1.80;;;;;;;23.10;48.38;94723.22;5014486;28;98938;-59
2021/09/10 03:33:56;;;;;;;1.58;1.48;;;;;;;23.12;48.25;94728.34;5014571;28;97880;-56
2021/09/10 03:36:21;;;;;;;1.67;1.58;;;;;;;23.12;48.30;94736.59;5014904;28;96939;-58
2021/09/10 03:38:46;;;;;;;1.90;1.80;;;;;;;23.12;48.35;94739.34;5015441;28;103271;-61
2021/09/10 03:41:12;;;;;;;1.48;1.38;;;;;;;23.12;48.22;94733.84;5017784;28;99319;-57
2021/09/10 03:43:37;;;;;;;1.60;1.50;;;;;;;23.10;48.26;94735.03;5018670;28;96712;-58
2021/09/10 03:46:03;;;;;;;1.45;1.35;;;;;;;23.10;48.22;94728.72;5018652;28;96956;-58
2021/09/10 03:48:28;;;;;;;1.67;1.58;;;;;;;23.10;48.42;94735.03;5018040;28;99464;-58
2021/09/10 03:50:54;;;;;;;1.35;1.25;;;;;;;23.12;48.27;94728.34;5018322;28;99148;-58
2021/09/10 03:53:19;;;;;;;1.63;1.52;;;;;;;23.10;48.47;94721.28;5018529;28;96769;-57
2021/09/10 03:55:45;;;;;;;1.75;1.65;;;;;;;23.12;48.46;94731.09;5018117;28;96904;-58
2021/09/10 03:58:10;;;;;;;1.50;1.40;;;;;;;23.08;48.32;94720.91;5017328;28;99863;-57
2021/09/10 04:00:35;;;;;;;1.48;1.38;;;;;;;23.10;48.33;94729.53;5017666;28;101855;-58
2021/09/10 04:03:04;;;;;;;2.03;1.50;;;;;;;23.12;48.39;94731.09;5018168;28;96687;-54
2021/09/10 04:05:30;;;;;;;1.17;1.13;;;;;;;23.12;48.22;94731.09;5018140;28;96662;-58
2021/09/10 04:07:55;;;;;;;1.30;1.20;;;;;;;23.10;48.43;94729.53;5017717;28;99509;-56
2021/09/10 04:10:21;;;;;;;1.10;1.10;;;;;;;23.12;48.21;94731.09;5017578;28;99004;-58
2021/09/10 04:12:46;;;;;;;1.00;1.00;;;;;;;23.10;48.48;94740.56;5017869;28;96543;-55
2021/09/10 04:15:12;;;;;;;1.40;1.30;;;;;;;23.09;48.21;94744.50;5018471;28;96941;-59
2021/09/10 04:17:37;;;;;;;1.23;1.23;;;;;;;23.09;48.37;94744.50;5016764;28;99593;-56
2021/09/10 04:20:03;;;;;;;1.13;1.13;;;;;;;23.09;48.16;94744.50;5017387;28;98871;-58
2021/09/10 04:22:28;;;;;;;1.00;1.00;;;;;;;23.10;48.23;94753.53;5017515;28;96681;-59
2021/09/10 04:24:54;;;;;;;1.15;1.15;;;;;;;23.12;48.42;94759.41;5018043;28;96942;-57
2021/09/10 04:27:19;;;;;;;1.45;1.10;;;;;;;23.08;48.15;94753.97;5016250;28;100781;-58
2021/09/10 04:29:45;;;;;;;1.35;1.23;;;;;;;23.12;48.10;94758.63;5016079;28;99423;-58
2021/09/10 04:32:10;;;;;;;1.17;1.13;;;;;;;23.12;47.99;94753.13;5017869;28;97512;-61
2021/09/10 04:34:35;;;;;;;1.40;1.30;;;;;;;23.13;48.20;94760.19;5017727;28;96899;-57
2021/09/10 04:37:01;;;;;;;1.95;1.42;;;;;;;23.12;48.19;94756.66;5017066;28;100193;-57
2021/09/10 04:39:26;;;;;;;1.83;1.35;;;;;;;23.13;48.18;94760.97;5017575;28;99593;-54
2021/09/10 04:41:52;;;;;;;1.25;1.15;;;;;;;23.12;47.74;94758.63;5016075;28;96813;-61
2021/09/10 04:44:17;;;;;;;1.25;1.15;;;;;;;23.13;48.00;94760.19;5017541;28;96980;-60
2021/09/10 04:46:43;;;;;;;1.00;1.00;;;;;;;23.15;47.95;94774.34;5016732;28;99062;-57
2021/09/10 04:49:08;;;;;;;1.17;1.10;;;;;;;23.13;47.98;94771.22;5016659;28;99623;-52
2021/09/10 04:51:34;;;;;;;1.30;1.20;;;;;;;23.15;48.19;94766.09;5016288;28;96709;-60
2021/09/10 04:54:00;;;;;;;1.65;1.10;;;;;;;23.14;48.08;94762.53;5016139;28;96926;-56
2021/09/10 04:56:26;;;;;;;1.25;1.08;;;;;;;23.14;48.19;94762.53;5016725;28;99049;-61
2021/09/10 04:58:51;;;;;;;1.10;1.10;;;;;;;23.14;48.14;94761.75;5016758;28;99577;-58
2021/09/10 05:01:17;;;;;;;1.83;1.33;;;;;;;23.16;48.32;94764.88;5017414;28;96631;-56
2021/09/10 05:03:42;;;;;;;2.78;1.00;;;;;;;23.14;47.92;94767.28;5017882;28;96945;-56
2021/09/10 05:06:08;;;;;;;0.82;0.82;;;;;;;23.15;47.99;94763.31;5016782;28;99656;-57
2021/09/10 05:08:33;;;;;;;1.27;1.17;;;;;;;23.14;48.02;94761.75;5016615;28;99166;-58
2021/09/10 05:10:59;;;;;;;1.13;1.13;;;;;;;23.13;48.02;94757.44;5016581;28;96707;-58
2021/09/10 05:13:24;;;;;;;0.70;0.70;;;;;;;23.15;47.88;94768.84;5017092;28;96928;-60
2021/09/10 05:15:50;;;;;;;1.23;1.13;;;;;;;23.14;48.02;94757.03;5015525;28;97694;-59
2021/09/10 05:18:15;;;;;;;0.90;0.90;;;;;;;23.16;47.87;94760.13;5016088;28;99143;-60
2021/09/10 05:20:41;;;;;;;1.00;0.90;;;;;;;23.18;47.77;94762.50;5016989;28;96666;-62
2021/09/10 05:23:06;;;;;;;1.35;0.93;;;;;;;23.18;48.03;94762.50;5015597;28;96867;-58
2021/09/10 05:25:32;;;;;;;0.88;0.80;;;;;;;23.16;47.84;94756.63;5016398;28;100110;-61
2021/09/10 05:27:57;;;;;;;1.23;1.13;;;;;;;23.19;47.82;94766.81;5015463;28;99938;-59
2021/09/10 05:30:23;;;;;;;0.70;0.70;;;;;;;23.19;47.84;94755.78;5017056;28;96686;-57
2021/09/10 05:32:48;;;;;;;1.25;1.15;;;;;;;23.13;47.76;94751.94;5017097;28;97559;-57
2021/09/10 05:35:15;;;;;;;0.90;0.90;;;;;;;23.20;48.02;94765.63;5015915;28;99737;-56
2021/09/10 05:37:41;;;;;;;1.30;1.17;;;;;;;23.20;47.69;94754.59;5015856;28;99040;-57
2021/09/10 05:40:07;;;;;;;2.83;1.00;;;;;;;23.21;47.69;94767.19;5016558;28;96728;-61
2021/09/10 05:42:32;;;;;;;1.27;1.20;;;;;;;23.21;47.65;94772.69;5016259;28;96956;-57
2021/09/10 05:44:58;;;;;;;1.50;1.40;;;;;;;23.22;47.54;94772.28;5016166;28;99406;-57
2021/09/10 05:47:23;;;;;;;3.40;1.05;;;;;;;23.21;47.83;94767.94;5015930;28;99069;-59
2021/09/10 05:49:48;;;;;;;0.80;0.80;;;;;;;23.21;47.64;94764.44;5016679;28;96930;-60
2021/09/10 05:52:14;;;;;;;1.10;1.10;;;;;;;23.20;47.59;94762.88;5016607;28;96941;-57
2021/09/10 05:54:39;;;;;;;1.23;1.13;;;;;;;23.21;47.63;94756.94;5015874;28;99578;-56
2021/09/10 05:57:05;;;;;;;0.85;0.85;;;;;;;23.18;47.67;94763.25;5015523;28;99705;-61
2021/09/10 05:59:31;;;;;;;1.70;1.23;;;;;;;23.20;47.73;94762.88;5016038;28;96618;-56
2021/09/10 06:01:56;;;;;;;2.40;1.10;;;;;;;23.18;48.40;94757.00;5014165;28;97004;-58
2021/09/10 06:04:22;;;;;;;2.35;1.50;;;;;;;23.17;48.65;94761.72;5014706;28;99406;-58
2021/09/10 06:06:47;;;;;;;1.02;1.00;;;;;;;23.17;48.81;94766.44;5210923;22;99472;-58
2021/09/10 06:09:12;;;;;;;1.70;1.05;;;;;;;23.20;48.57;94765.63;4987523;28;96913;-55
2021/09/10 06:11:38;;;;;;;1.45;1.20;;;;;;;23.23;48.75;94765.59;4995653;28;96909;-54
2021/09/10 06:14:03;;;;;;;2.05;1.02;;;;;;;23.21;48.67;94761.66;4995457;28;99618;-55
2021/09/10 06:16:29;;;;;;;3.97;1.60;;;;;;;23.26;48.45;94741.94;4995606;28;99203;-52
2021/09/10 06:18:54;;;;;;;1.95;1.85;;;;;;;23.28;48.66;94744.28;4995511;28;96599;-51
2021/09/10 06:21:20;;;;;;;9.77;7.65;;;;;;;23.30;48.41;94742.66;4995492;28;96919;-52
2021/09/10 06:23:46;;;;;;;11.70;9.15;;;;;;;23.31;48.15;94735.94;4994858;28;99341;-54
2021/09/10 06:26:11;;;;;;;18.45;15.35;;;;;;;23.32;47.98;94759.56;4995477;28;99595;-49
2021/09/10 06:28:37;;;;;;;20.08;14.95;;;;;;;23.29;47.93;94754.88;4994987;28;96900;-53
2021/09/10 06:31:02;;;;;;;19.85;15.43;;;;;;;23.28;47.82;94756.06;4995003;28;96945;-55
2021/09/10 06:33:28;;;;;;;18.02;15.18;;;;;;;23.25;47.88;94751.41;4995121;28;99718;-51
2021/09/10 06:35:53;;;;;;;19.75;15.88;;;;;;;23.22;47.99;94746.69;4995019;28;99715;-51
2021/09/10 06:38:19;;;;;;;19.20;14.70;;;;;;;23.20;47.86;94755.38;4995358;28;96948;-51
2021/09/10 06:40:44;;;;;;;18.25;14.15;;;;;;;23.17;47.76;94756.19;4993854;28;96953;-54
2021/09/10 06:43:10;;;;;;;13.55;11.85;;;;;;;23.15;47.91;94757.81;4994842;28;98087;-44
2021/09/10 06:45:35;;;;;;;14.07;11.40;;;;;;;23.14;47.81;94761.75;4992411;28;98792;-50
2021/09/10 06:48:01;;;;;;;14.25;10.98;;;;;;;23.09;47.79;94761.03;4992668;28;96965;-53
2021/09/10 06:50:26;;;;;;;13.73;10.38;;;;;;;23.13;47.58;94760.19;4993121;28;96824;-52
2021/09/10 06:52:52;;;;;;;11.38;9.07;;;;;;;23.11;47.58;94757.84;4992530;28;99298;-50
2021/09/10 06:55:17;;;;;;;10.85;9.13;;;;;;;23.10;47.65;94754.31;4993098;28;99289;-45
2021/09/10 06:57:42;;;;;;;9.63;7.93;;;;;;;23.10;47.44;94751.56;4993337;28;97152;-51
2021/09/10 07:00:09;;;;;;;10.23;7.53;;;;;;;23.09;47.76;94755.50;4994926;28;96933;-47
2021/09/10 07:02:34;;;;;;;11.55;7.30;;;;;;;23.09;47.40;94754.72;4995172;28;99765;-45
2021/09/10 07:04:59;;;;;;;8.70;7.05;;;;;;;23.09;47.30;94755.50;4995379;28;98998;-49
2021/09/10 07:07:25;;;;;;;9.02;6.90;;;;;;;23.09;47.63;94755.50;4985531;28;98325;-45
2021/09/10 07:09:53;;;;;;;7.03;6.30;;;;;;;23.10;47.70;94759.84;4975276;28;97001;-49
2021/09/10 07:12:19;;;;;;;7.18;6.38;;;;;;;23.09;47.61;94769.28;4974242;28;99433;-46
2021/09/10 07:14:44;;;;;;;7.90;6.40;;;;;;;23.08;47.65;94756.72;4974910;28;99245;-47
2021/09/10 07:17:10;;;;;;;7.15;5.88;;;;;;;23.09;47.81;94766.53;4975797;28;97688;-46
2021/09/10 07:19:35;;;;;;;6.97;5.60;;;;;;;23.07;47.77;94768.91;4975303;28;96874;-48
2021/09/10 07:22:01;;;;;;;5.65;4.90;;;;;;;23.07;47.66;94773.63;4975003;28;99397;-49
2021/09/10 07:24:26;;;;;;;5.57;5.07;;;;;;;23.07;47.73;94768.13;4975015;28;97728;-48
2021/09/10 07:26:52;;;;;;;5.60;5.00;;;;;;;23.07;47.60;94768.13;4975526;28;96718;-52
2021/09/10 07:29:22;;;;;;;5.97;5.30;;;;;;;23.04;47.65;94769.75;4975745;28;96945;-48
2021/09/10 07:31:48;;;;;;;5.30;4.80;;;;;;;23.02;47.76;94761.13;4974917;28;99586;-44
2021/09/10 07:34:14;;;;;;;4.55;4.15;;;;;;;23.01;47.72;94770.56;4974766;28;99510;-47
2021/09/10 07:36:39;;;;;;;4.30;3.90;;;;;;;23.01;47.78;94765.06;4974548;28;96676;-50
2021/09/10 07:39:04;;;;;;;4.30;3.88;;;;;;;23.04;47.83;94772.50;4975106;28;96851;-50
2021/09/10 07:41:30;;;;;;;4.00;3.70;;;;;;;23.03;47.90;94770.16;4974741;28;99494;-50
2021/09/10 07:43:55;;;;;;;4.20;3.90;;;;;;;23.02;47.67;94771.34;4974787;28;99318;-48
2021/09/10 07:46:21;;;;;;;5.07;4.07;;;;;;;23.00;47.82;94768.22;4975033;28;96661;-44
2021/09/10 07:48:46;;;;;;;3.60;3.28;;;;;;;22.99;47.52;94772.16;4975043;28;97322;-48
2021/09/10 07:51:12;;;;;;;4.05;3.35;;;;;;;23.00;47.85;94774.53;4974459;28;99590;-45
2021/09/10 07:53:37;;;;;;;3.72;3.30;;;;;;;23.02;47.60;94771.34;4975173;28;99445;-49
2021/09/10 07:56:03;;;;;;;3.35;3.05;;;;;;;22.99;47.50;94772.94;4975343;28;96762;-46
2021/09/10 07:58:28;;;;;;;3.70;3.40;;;;;;;23.01;47.82;94767.81;4974928;28;96970;-45
2021/09/10 08:00:54;;;;;;;3.30;3.00;;;;;;;23.02;47.62;94766.63;4974040;28;99321;-47
2021/09/10 08:03:19;;;;;;;2.95;2.67;;;;;;;23.01;47.71;94770.56;4974634;28;99255;-46
2021/09/10 08:05:45;;;;;;;6.07;2.88;;;;;;;22.98;48.00;94771.41;4974922;28;96693;-47
2021/09/10 08:08:10;;;;;;;2.70;2.50;;;;;;;23.02;47.93;94776.84;4973470;28;97246;-48
2021/09/10 08:10:36;;;;;;;2.97;2.53;;;;;;;23.04;48.11;94769.75;4974075;28;99688;-46
2021/09/10 08:13:01;;;;;;;5.15;2.65;;;;;;;23.07;47.87;94773.63;4974136;28;99303;-47
2021/09/10 08:15:27;;;;;;;5.93;2.40;;;;;;;23.12;47.99;94772.41;4974575;28;96652;-46
2021/09/10 08:17:52;;;;;;;2.63;2.03;;;;;;;23.15;48.14;94768.84;4974855;28;96887;-53
2021/09/10 08:20:17;;;;;;;3.55;2.50;;;;;;;23.19;48.14;94769.56;4974049;28;99401;-46
2021/09/10 08:22:43;;;;;;;2.47;2.13;;;;;;;23.20;47.94;94771.91;4973629;28;99290;-46
2021/09/10 08:25:09;;;;;;;3.22;2.90;;;;;;;23.24;47.97;94774.66;4975612;28;96741;-51
2021/09/10 08:27:36;;;;;;;3.28;2.97;;;;;;;23.28;48.13;94767.09;4977842;28;96858;-49
2021/09/10 08:30:02;;;;;;;3.03;2.40;;;;;;;23.30;47.99;94764.72;4977167;28;99543;-47
2021/09/10 08:32:28;;;;;;;8.43;4.93;;;;;;;23.32;47.90;94765.06;4977197;28;98886;-54
2021/09/10 08:34:53;;;;;;;30.95;24.38;;;;;;;23.31;45.56;94760.75;4977286;28;96682;-56
2021/09/10 08:37:19;;;;;;;29.63;18.30;;;;;;;23.30;44.87;94761.94;4975600;28;97013;-55
2021/09/10 08:39:44;;;;;;;15.00;11.00;;;;;;;23.26;44.26;94758.47;4976687;28;99589;-58
2021/09/10 08:42:10;;;;;;;9.10;6.97;;;;;;;23.29;43.43;94763.16;4976922;28;100912;-53
2021/09/10 08:44:38;;;;;;;9.10;6.32;;;;;;;23.25;43.21;94767.94;4977597;28;97461;-54
2021/09/10 08:47:04;;;;;;;9.70;5.25;;;;;;;23.21;43.54;94756.16;4977436;28;96936;-56
2021/09/10 08:49:29;;;;;;;9.23;4.53;;;;;;;23.19;43.72;94748.28;4976363;28;100372;-54
2021/09/10 08:51:55;;;;;;;5.80;4.47;;;;;;;23.22;42.73;94752.22;4975246;28;100050;-54
2021/09/10 08:54:20;;;;;;;6.00;4.10;;;;;;;23.25;42.18;94748.66;4976862;28;96768;-52
2021/09/10 08:56:45;;;;;;;6.38;3.90;;;;;;;23.26;41.04;94752.94;4977344;28;97457;-49
2021/09/10 08:59:19;;;;;;;10.10;4.95;;;;;;;23.24;41.26;94744.34;4976712;28;99717;-51
2021/09/10 09:01:48;;;;;;;22.88;15.60;;;;;;;23.23;41.58;94742.78;4976641;28;99350;-48
2021/09/10 09:04:13;;;;;;;19.02;16.48;;;;;;;23.31;42.04;94741.47;4976949;28;96679;-51
2021/09/10 09:06:39;;;;;;;11.05;9.85;;;;;;;23.39;43.00;94745.69;4976313;28;96884;-49
2021/09/10 09:09:04;;;;;;;11.07;9.98;;;;;;;23.48;42.97;94738.88;4976263;28;99492;-48
2021/09/10 09:11:30;;;;;;;11.98;8.95;;;;;;;23.57;42.94;94738.34;4975009;28;101467;-50
2021/09/10 09:13:56;;;;;;;12.55;9.75;;;;;;;23.63;43.17;94737.47;4976348;28;96701;-52
2021/09/10 09:16:24;;;;;;;9.48;8.15;;;;;;;23.67;43.21;94732.69;4976926;28;96912;-52
2021/09/10 09:19:00;;;;;;;9.77;7.68;;;;;;;23.76;43.45;94736.91;4975926;28;99371;-52
2021/09/10 09:21:30;;;;;;;7.78;6.82;;;;;;;23.79;43.21;94738.81;4974914;28;99606;-50
2021/09/10 09:23:57;;;;;;;8.75;7.03;;;;;;;23.83;43.34;94734.78;4976964;28;96813;-54
2021/09/10 09:26:27;;;;;;;8.57;6.70;;;;;;;23.87;43.48;94729.22;4976753;28;96953;-50
2021/09/10 09:29:06;;;;;;;8.18;5.93;;;;;;;23.87;43.74;94733.97;4976285;28;99582;-49
2021/09/10 09:31:32;;;;;;;9.15;5.65;;;;;;;23.88;42.22;94732.75;4976635;28;99307;-51
2021/09/10 09:33:57;;;;;;;6.90;5.25;;;;;;;23.85;40.93;94731.59;4976472;28;97529;-51
2021/09/10 09:36:23;;;;;;;7.07;4.57;;;;;;;23.91;40.27;94732.69;4975202;28;96930;-48
2021/09/10 09:38:48;;;;;;;6.50;4.97;;;;;;;23.94;41.21;94729.09;4975404;28;99830;-53
2021/09/10 09:41:15;;;;;;;6.65;5.10;;;;;;;23.95;41.36;94719.63;4973910;28;99296;-51
2021/09/10 09:43:46;;;;;;;5.93;5.15;;;;;;;24.01;42.13;94721.94;4973065;28;96876;-52
2021/09/10 09:46:15;;;;;;;5.35;4.63;;;;;;;24.04;41.83;94727.41;4974344;28;97660;-50
2021/09/10 09:48:42;;;;;;;4.80;4.40;;;;;;;24.08;41.81;94716.28;4973201;28;99538;-53
2021/09/10 09:51:08;;;;;;;6.68;3.97;;;;;;;24.11;42.00;94715.44;4974162;28;99204;-46
2021/09/10 09:53:35;;;;;;;4.93;4.10;;;;;;;24.13;41.86;94713.06;4974945;28;96744;-51
2021/09/10 09:56:01;;;;;;;4.25;3.90;;;;;;;24.15;41.99;94709.84;4976330;28;96805;-54
2021/09/10 09:58:26;;;;;;;6.93;3.88;;;;;;;24.17;41.98;94702.72;4974581;28;99145;-49
2021/09/10 10:00:52;;;;;;;5.15;3.67;;;;;;;24.21;41.70;94708.97;4974485;28;99923;-51
2021/09/10 10:03:17;;;;;;;4.25;3.85;;;;;;;24.24;41.69;94705.38;4974189;28;96760;-52
2021/09/10 10:05:46;;;;;;;17.92;12.77;;;;;;;24.26;41.39;94704.94;4976347;28;96933;-49
2021/09/10 10:08:12;;;;;;;21.75;17.08;;;;;;;24.27;41.24;94704.53;4975074;28;99649;-54
2021/09/10 10:10:41;;;;;;;18.30;14.80;;;;;;;24.28;41.08;94697.81;4975475;28;99412;-53
2021/09/10 10:13:06;;;;;;;13.30;11.88;;;;;;;24.34;41.63;94695.31;4974809;28;96693;-51
2021/09/10 10:15:32;;;;;;;16.05;11.95;;;;;;;24.37;40.66;94691.72;4975922;28;96905;-52
2021/09/10 10:17:58;;;;;;;15.77;11.50;;;;;;;24.36;41.43;94698.44;4974938;28;99647;-50
2021/09/10 10:20:45;;;;;;;13.00;11.68;;;;;;;24.40;41.43;94703.91;4975650;28;99269;-54
2021/09/10 10:23:44;;;;;;;10.93;9.82;;;;;;;24.39;41.47;94680.25;4975907;28;96609;-49
2021/09/10 10:26:20;;;;;;;11.57;9.52;;;;;;;24.38;41.26;94673.19;4975994;28;96975;-49
2021/09/10 10:28:51;;;;;;;15.48;13.52;;;;;;;24.38;41.44;94698.03;4975323;28;100204;-54
2021/09/10 10:35:29;;;;;;;15.35;13.30;;;;;;;24.33;42.62;94687.47;4972376;28;97002;-49
2021/09/10 10:37:55;;;;;;;14.15;12.75;;;;;;;24.28;42.44;94689.53;4974240;28;97129;-49
2021/09/10 10:40:39;;;;;;;13.45;12.05;;;;;;;24.27;42.25;94684.41;4974097;28;100037;-53
2021/09/10 10:43:24;;;;;;;13.48;11.48;;;;;;;24.25;42.44;94693.13;4972589;28;99670;-54
2021/09/10 10:45:49;;;;;;;12.82;11.15;;;;;;;24.25;42.32;94682.09;4973584;28;97250;-51
2021/09/10 10:48:30;;;;;;;13.10;11.35;;;;;;;24.25;42.58;94678.53;4973230;28;96952;-51
2021/09/10 10:51:01;;;;;;;12.65;11.35;;;;;;;24.23;42.54;94675.41;4972721;28;99405;-52
2021/09/10 10:53:26;;;;;;;11.30;10.10;;;;;;;24.23;42.58;94670.69;4972876;28;99320;-51
2021/09/10 10:55:52;;;;;;;10.60;9.38;;;;;;;24.21;42.41;94666.78;4973620;28;96761;-52
2021/09/10 10:58:24;;;;;;;11.85;9.20;;;;;;;24.25;42.76;94665.53;4974423;28;97196;-46
2021/09/10 11:00:50;;;;;;;10.30;9.27;;;;;;;24.24;42.71;94663.97;4973505;28;99705;-53
2021/09/10 11:03:19;;;;;;;9.32;8.30;;;;;;;24.25;42.67;94664.72;4974806;28;99765;-49
2021/09/10 11:05:45;;;;;;;9.60;8.65;;;;;;;24.25;42.82;94665.53;4975989;28;97649;-48
2021/09/10 11:08:11;;;;;;;8.45;7.60;;;;;;;24.26;42.51;94667.09;4974769;28;99238;-53
2021/09/10 11:10:36;;;;;;;9.18;7.57;;;;;;;24.24;42.55;94658.44;4974936;28;99184;-49
2021/09/10 11:13:02;;;;;;;8.35;7.13;;;;;;;24.24;42.82;94657.66;4975350;28;101556;-55
2021/09/10 11:15:31;;;;;;;8.43;7.57;;;;;;;24.26;42.73;94667.09;4975563;28;96713;-52
2021/09/10 11:18:24;;;;;;;7.53;6.82;;;;;;;24.26;42.83;94667.09;4975453;28;96904;-52
2021/09/10 11:20:51;;;;;;;8.68;6.47;;;;;;;24.26;42.95;94661.56;4973358;28;99610;-53
2021/09/10 11:23:27;;;;;;;7.35;6.65;;;;;;;24.26;42.76;94658.81;4975099;28;99426;-49
2021/09/10 11:25:54;;;;;;;6.50;5.95;;;;;;;24.28;42.73;94658.38;4975439;28;96712;-51
2021/09/10 11:28:20;;;;;;;7.57;6.78;;;;;;;24.27;42.99;94657.59;4975764;28;96870;-55